PWSweather.com
Personal Weather Stations
Station Observations
METEOC500
Santo Antonio, FunchalPT 2020

Santo AntonioFunchalPT 2020

Lat: 32.678227, Lon: -16.945054

Elevation: 1669.94751

Station Type: WH Series

High Low Average
Temperature 72.9°F22.7°C 59.9°F15.5°C 65.5°F18.6°C
Dew Point 60.4°F15.8°C 53.2°F11.8°C 57.2°F14.0°C
Winds 11.2 mph 18.0 kmh Calm Calm 4.0 mph WSW6.4 kmh WSW
Wind Gusts 17.4 mph28.0 kmh 2.5 mph4.0 kmh 9.0 mph14.5 kmh
Humidity 90% 58% 75%
Pressure 30.24 in1024.0 mb 30.15 in1021.0 mb -
Precipitation 0.00 in0.0 mm - -
Hour Temp Dew Point Humidity Winds Wind Gusts Pressure Precip Precip Rate Daily Precip Total
12:15 AM 63.5°F17.5°C 60.4°F15.8°C 90% 1.6 mph NW2.6 kmh NW 4.9 mph7.9 kmh 30.18 in1022.0 mb 0.00 in0.0 mm 0.00 in0.0 mm 0.00 in0.0 mm
12:30 AM 63.1°F17.3°C 60.1°F15.6°C 90% 1.8 mph NNW2.9 kmh NNW 4.9 mph7.9 kmh 30.17 in1021.7 mb 0.00 in0.0 mm 0.00 in0.0 mm 0.00 in0.0 mm
12:45 AM 62.8°F17.1°C 59.7°F15.4°C 90% 3.4 mph NNW5.5 kmh NNW 4.9 mph7.9 kmh 30.17 in1021.7 mb 0.00 in0.0 mm 0.00 in0.0 mm 0.00 in0.0 mm
01:00 AM 62.8°F17.1°C 58.5°F14.7°C 86% 4.0 mph NNW6.4 kmh NNW 7.6 mph12.2 kmh 30.17 in1021.7 mb 0.00 in0.0 mm 0.00 in0.0 mm 0.00 in0.0 mm
01:15 AM 63.0°F17.2°C 58.1°F14.5°C 84% 6.9 mph NNW11.1 kmh NNW 10.1 mph16.3 kmh 30.17 in1021.7 mb 0.00 in0.0 mm 0.00 in0.0 mm 0.00 in0.0 mm
01:30 AM 63.0°F17.2°C 58.1°F14.5°C 84% 4.7 mph N7.6 kmh N 10.1 mph16.3 kmh 30.17 in1021.7 mb 0.00 in0.0 mm 0.00 in0.0 mm 0.00 in0.0 mm
01:45 AM 62.8°F17.1°C 58.8°F14.9°C 87% 3.8 mph NNW6.1 kmh NNW 7.6 mph12.2 kmh 30.17 in1021.7 mb 0.00 in0.0 mm 0.00 in0.0 mm 0.00 in0.0 mm
02:00 AM 62.4°F16.9°C 57.9°F14.4°C 85% 1.8 mph NNW2.9 kmh NNW 7.6 mph12.2 kmh 30.16 in1021.3 mb 0.00 in0.0 mm 0.00 in0.0 mm 0.00 in0.0 mm
02:15 AM 62.4°F16.9°C 57.2°F14.0°C 83% 3.4 mph N5.5 kmh N 7.6 mph12.2 kmh 30.16 in1021.3 mb 0.00 in0.0 mm 0.00 in0.0 mm 0.00 in0.0 mm
02:30 AM 62.6°F17.0°C 58.1°F14.5°C 85% 4.7 mph NNW7.6 kmh NNW 7.6 mph12.2 kmh 30.16 in1021.3 mb 0.00 in0.0 mm 0.00 in0.0 mm 0.00 in0.0 mm
02:45 AM 62.4°F16.9°C 57.2°F14.0°C 83% 4.7 mph NNW7.6 kmh NNW 7.6 mph12.2 kmh 30.16 in1021.3 mb 0.00 in0.0 mm 0.00 in0.0 mm 0.00 in0.0 mm
03:00 AM 62.1°F16.7°C 56.8°F13.8°C 83% 4.9 mph NNW7.9 kmh NNW 10.1 mph16.3 kmh 30.16 in1021.3 mb 0.00 in0.0 mm 0.00 in0.0 mm 0.00 in0.0 mm
03:15 AM 62.1°F16.7°C 56.5°F13.6°C 82% 4.5 mph N7.2 kmh N 7.6 mph12.2 kmh 30.16 in1021.3 mb 0.00 in0.0 mm 0.00 in0.0 mm 0.00 in0.0 mm
03:30 AM 61.9°F16.6°C 56.3°F13.5°C 82% 5.6 mph NNW9.0 kmh NNW 12.5 mph20.1 kmh 30.16 in1021.3 mb 0.00 in0.0 mm 0.00 in0.0 mm 0.00 in0.0 mm
03:45 AM 61.7°F16.5°C 56.1°F13.4°C 82% 7.2 mph NNW11.6 kmh NNW 10.1 mph16.3 kmh 30.15 in1021.0 mb 0.00 in0.0 mm 0.00 in0.0 mm 0.00 in0.0 mm
04:01 AM 61.7°F16.5°C 56.1°F13.4°C 82% 6.3 mph NW10.1 kmh NW 12.5 mph20.1 kmh 30.15 in1021.0 mb 0.00 in0.0 mm 0.00 in0.0 mm 0.00 in0.0 mm
04:16 AM 61.7°F16.5°C 55.8°F13.2°C 81% 7.2 mph NNW11.6 kmh NNW 10.1 mph16.3 kmh 30.15 in1021.0 mb 0.00 in0.0 mm 0.00 in0.0 mm 0.00 in0.0 mm
04:31 AM 61.7°F16.5°C 55.8°F13.2°C 81% 6.0 mph N9.7 kmh N 10.1 mph16.3 kmh 30.15 in1021.0 mb 0.00 in0.0 mm 0.00 in0.0 mm 0.00 in0.0 mm
04:46 AM 61.5°F16.4°C 55.9°F13.3°C 82% 5.6 mph N9.0 kmh N 10.1 mph16.3 kmh 30.15 in1021.0 mb 0.00 in0.0 mm 0.00 in0.0 mm 0.00 in0.0 mm
05:01 AM 61.2°F16.2°C 56.3°F13.5°C 84% 6.0 mph N9.7 kmh N 12.5 mph20.1 kmh 30.16 in1021.3 mb 0.00 in0.0 mm 0.00 in0.0 mm 0.00 in0.0 mm
05:16 AM 61.0°F16.1°C 54.7°F12.6°C 80% 5.4 mph NNW8.7 kmh NNW 10.1 mph16.3 kmh 30.15 in1021.0 mb 0.00 in0.0 mm 0.00 in0.0 mm 0.00 in0.0 mm
05:31 AM 61.2°F16.2°C 55.2°F12.9°C 81% 4.9 mph N7.9 kmh N 12.5 mph20.1 kmh 30.16 in1021.3 mb 0.00 in0.0 mm 0.00 in0.0 mm 0.00 in0.0 mm
05:46 AM 61.2°F16.2°C 54.9°F12.7°C 80% 5.6 mph NNW9.0 kmh NNW 7.6 mph12.2 kmh 30.16 in1021.3 mb 0.00 in0.0 mm 0.00 in0.0 mm 0.00 in0.0 mm
06:01 AM 61.0°F16.1°C 54.5°F12.5°C 79% 5.4 mph N8.7 kmh N 10.1 mph16.3 kmh 30.16 in1021.3 mb 0.00 in0.0 mm 0.00 in0.0 mm 0.00 in0.0 mm
06:16 AM 61.0°F16.1°C 54.5°F12.5°C 79% 5.4 mph N8.7 kmh N 10.1 mph16.3 kmh 30.17 in1021.7 mb 0.00 in0.0 mm 0.00 in0.0 mm 0.00 in0.0 mm
06:31 AM 60.6°F15.9°C 55.0°F12.8°C 82% 7.8 mph N12.6 kmh N 12.5 mph20.1 kmh 30.17 in1021.7 mb 0.00 in0.0 mm 0.00 in0.0 mm 0.00 in0.0 mm
06:46 AM 60.1°F15.6°C 54.5°F12.5°C 82% 4.9 mph NNW7.9 kmh NNW 10.1 mph16.3 kmh 30.17 in1021.7 mb 0.00 in0.0 mm 0.00 in0.0 mm 0.00 in0.0 mm
07:01 AM 59.9°F15.5°C 54.7°F12.6°C 83% 5.4 mph NNW8.7 kmh NNW 10.1 mph16.3 kmh 30.17 in1021.7 mb 0.00 in0.0 mm 0.00 in0.0 mm 0.00 in0.0 mm
07:16 AM 59.9°F15.5°C 54.1°F12.3°C 81% 4.7 mph NNW7.6 kmh NNW 10.1 mph16.3 kmh 30.18 in1022.0 mb 0.00 in0.0 mm 0.00 in0.0 mm 0.00 in0.0 mm
07:31 AM 60.3°F15.7°C 54.3°F12.4°C 81% 6.0 mph N9.7 kmh N 10.1 mph16.3 kmh 30.18 in1022.0 mb 0.00 in0.0 mm 0.00 in0.0 mm 0.00 in0.0 mm
07:47 AM 60.4°F15.8°C 54.3°F12.4°C 80% 6.5 mph NNW10.5 kmh NNW 10.1 mph16.3 kmh 30.18 in1022.0 mb 0.00 in0.0 mm 0.00 in0.0 mm 0.00 in0.0 mm
08:02 AM 60.8°F16.0°C 54.7°F12.6°C 80% 6.9 mph N11.1 kmh N 10.1 mph16.3 kmh 30.19 in1022.4 mb 0.00 in0.0 mm 0.00 in0.0 mm 0.00 in0.0 mm
08:17 AM 61.7°F16.5°C 55.4°F13.0°C 80% 5.6 mph N9.0 kmh N 10.1 mph16.3 kmh 30.19 in1022.4 mb 0.00 in0.0 mm 0.00 in0.0 mm 0.00 in0.0 mm
08:32 AM 62.4°F16.9°C 56.1°F13.4°C 80% 4.7 mph N7.6 kmh N 7.6 mph12.2 kmh 30.20 in1022.7 mb 0.00 in0.0 mm 0.00 in0.0 mm 0.00 in0.0 mm
08:47 AM 63.0°F17.2°C 56.3°F13.5°C 79% 2.9 mph NNW4.7 kmh NNW 10.1 mph16.3 kmh 30.21 in1023.0 mb 0.00 in0.0 mm 0.00 in0.0 mm 0.00 in0.0 mm
09:02 AM 64.0°F17.8°C 56.3°F13.5°C 76% 2.5 mph N4.0 kmh N 4.9 mph7.9 kmh 30.21 in1023.0 mb 0.00 in0.0 mm 0.00 in0.0 mm 0.00 in0.0 mm
09:17 AM 65.8°F18.8°C 56.1°F13.4°C 71% Calm Calm 4.9 mph7.9 kmh 30.21 in1023.0 mb 0.00 in0.0 mm 0.00 in0.0 mm 0.00 in0.0 mm
09:32 AM 68.0°F20.0°C 55.8°F13.2°C 65% 2.9 mph SW4.7 kmh SW 4.9 mph7.9 kmh 30.22 in1023.4 mb 0.00 in0.0 mm 0.00 in0.0 mm 0.00 in0.0 mm
09:47 AM 70.2°F21.2°C 57.0°F13.9°C 63% 3.1 mph E5.0 kmh E 10.1 mph16.3 kmh 30.22 in1023.4 mb 0.00 in0.0 mm 0.00 in0.0 mm 0.00 in0.0 mm
10:02 AM 71.4°F21.9°C 56.8°F13.8°C 60% 5.6 mph SSW9.0 kmh SSW 10.1 mph16.3 kmh 30.23 in1023.7 mb 0.00 in0.0 mm 0.00 in0.0 mm 0.00 in0.0 mm
10:17 AM 71.4°F21.9°C 58.6°F14.8°C 64% 4.9 mph S7.9 kmh S 10.1 mph16.3 kmh 30.23 in1023.7 mb 0.00 in0.0 mm 0.00 in0.0 mm 0.00 in0.0 mm
10:32 AM 71.4°F21.9°C 55.9°F13.3°C 58% 3.1 mph S5.0 kmh S 7.6 mph12.2 kmh 30.23 in1023.7 mb 0.00 in0.0 mm 0.00 in0.0 mm 0.00 in0.0 mm
10:47 AM 71.8°F22.1°C 57.6°F14.2°C 61% 1.6 mph SE2.6 kmh SE 12.5 mph20.1 kmh 30.22 in1023.4 mb 0.00 in0.0 mm 0.00 in0.0 mm 0.00 in0.0 mm
11:02 AM 72.0°F22.2°C 57.7°F14.3°C 61% 1.8 mph SSE2.9 kmh SSE 7.6 mph12.2 kmh 30.22 in1023.4 mb 0.00 in0.0 mm 0.00 in0.0 mm 0.00 in0.0 mm
11:18 AM 71.8°F22.1°C 57.6°F14.2°C 61% 2.9 mph SSE4.7 kmh SSE 7.6 mph12.2 kmh 30.21 in1023.0 mb 0.00 in0.0 mm 0.00 in0.0 mm 0.00 in0.0 mm
11:33 AM 71.6°F22.0°C 57.4°F14.1°C 61% 4.7 mph S7.6 kmh S 10.1 mph16.3 kmh 30.21 in1023.0 mb 0.00 in0.0 mm 0.00 in0.0 mm 0.00 in0.0 mm
11:48 AM 72.0°F22.2°C 57.7°F14.3°C 61% 4.7 mph S7.6 kmh S 12.5 mph20.1 kmh 30.20 in1022.7 mb 0.00 in0.0 mm 0.00 in0.0 mm 0.00 in0.0 mm
12:03 PM 72.0°F22.2°C 56.8°F13.8°C 59% 8.5 mph S13.7 kmh S 15.0 mph24.1 kmh 30.20 in1022.7 mb 0.00 in0.0 mm 0.00 in0.0 mm 0.00 in0.0 mm
12:18 PM 72.7°F22.6°C 57.9°F14.4°C 60% 5.4 mph SSE8.7 kmh SSE 15.0 mph24.1 kmh 30.19 in1022.4 mb 0.00 in0.0 mm 0.00 in0.0 mm 0.00 in0.0 mm
12:33 PM 72.9°F22.7°C 58.1°F14.5°C 60% 0.2 mph S0.3 kmh S 15.0 mph24.1 kmh 30.19 in1022.4 mb 0.00 in0.0 mm 0.00 in0.0 mm 0.00 in0.0 mm
12:48 PM 72.9°F22.7°C 58.6°F14.8°C 61% 6.0 mph SSW9.7 kmh SSW 12.5 mph20.1 kmh 30.19 in1022.4 mb 0.00 in0.0 mm 0.00 in0.0 mm 0.00 in0.0 mm
01:03 PM 72.7°F22.6°C 58.8°F14.9°C 62% 8.1 mph SE13.0 kmh SE 17.4 mph28.0 kmh 30.20 in1022.7 mb 0.00 in0.0 mm 0.00 in0.0 mm 0.00 in0.0 mm
01:18 PM 72.3°F22.4°C 59.0°F15.0°C 63% 11.2 mph SE18.0 kmh SE 15.0 mph24.1 kmh 30.19 in1022.4 mb 0.00 in0.0 mm 0.00 in0.0 mm 0.00 in0.0 mm
01:33 PM 72.0°F22.2°C 60.4°F15.8°C 67% 7.8 mph ESE12.6 kmh ESE 15.0 mph24.1 kmh 30.19 in1022.4 mb 0.00 in0.0 mm 0.00 in0.0 mm 0.00 in0.0 mm
01:48 PM 71.8°F22.1°C 59.0°F15.0°C 64% 2.2 mph SW3.5 kmh SW 12.5 mph20.1 kmh 30.18 in1022.0 mb 0.00 in0.0 mm 0.00 in0.0 mm 0.00 in0.0 mm
02:03 PM 72.0°F22.2°C 59.5°F15.3°C 65% 6.0 mph SE9.7 kmh SE 12.5 mph20.1 kmh 30.18 in1022.0 mb 0.00 in0.0 mm 0.00 in0.0 mm 0.00 in0.0 mm
02:18 PM 71.2°F21.8°C 59.7°F15.4°C 67% 7.6 mph SE12.2 kmh SE 12.5 mph20.1 kmh 30.17 in1021.7 mb 0.00 in0.0 mm 0.00 in0.0 mm 0.00 in0.0 mm
02:33 PM 70.0°F21.1°C 59.4°F15.2°C 69% 3.1 mph S5.0 kmh S 12.5 mph20.1 kmh 30.17 in1021.7 mb 0.00 in0.0 mm 0.00 in0.0 mm 0.00 in0.0 mm
02:49 PM 69.3°F20.7°C 59.0°F15.0°C 70% 3.4 mph S5.5 kmh S 10.1 mph16.3 kmh 30.17 in1021.7 mb 0.00 in0.0 mm 0.00 in0.0 mm 0.00 in0.0 mm
03:04 PM 68.7°F20.4°C 59.0°F15.0°C 71% 1.6 mph S2.6 kmh S 12.5 mph20.1 kmh 30.17 in1021.7 mb 0.00 in0.0 mm 0.00 in0.0 mm 0.00 in0.0 mm
03:19 PM 68.2°F20.1°C 59.2°F15.1°C 73% 4.5 mph SE7.2 kmh SE 10.1 mph16.3 kmh 30.17 in1021.7 mb 0.00 in0.0 mm 0.00 in0.0 mm 0.00 in0.0 mm
03:34 PM 68.2°F20.1°C 59.2°F15.1°C 73% 3.8 mph SE6.1 kmh SE 10.1 mph16.3 kmh 30.17 in1021.7 mb 0.00 in0.0 mm 0.00 in0.0 mm 0.00 in0.0 mm
03:49 PM 67.8°F19.9°C 59.5°F15.3°C 75% 7.2 mph SE11.6 kmh SE 12.5 mph20.1 kmh 30.17 in1021.7 mb 0.00 in0.0 mm 0.00 in0.0 mm 0.00 in0.0 mm
04:04 PM 67.5°F19.7°C 59.2°F15.1°C 75% 4.0 mph E6.4 kmh E 10.1 mph16.3 kmh 30.17 in1021.7 mb 0.00 in0.0 mm 0.00 in0.0 mm 0.00 in0.0 mm
04:19 PM 67.3°F19.6°C 59.0°F15.0°C 75% 6.3 mph SE10.1 kmh SE 10.1 mph16.3 kmh 30.16 in1021.3 mb 0.00 in0.0 mm 0.00 in0.0 mm 0.00 in0.0 mm
04:34 PM 67.3°F19.6°C 59.5°F15.3°C 76% 1.3 mph SSW2.1 kmh SSW 10.1 mph16.3 kmh 30.17 in1021.7 mb 0.00 in0.0 mm 0.00 in0.0 mm 0.00 in0.0 mm
04:49 PM 67.3°F19.6°C 59.5°F15.3°C 76% 3.1 mph SE5.0 kmh SE 10.1 mph16.3 kmh 30.17 in1021.7 mb 0.00 in0.0 mm 0.00 in0.0 mm 0.00 in0.0 mm
05:04 PM 67.3°F19.6°C 59.5°F15.3°C 76% 7.8 mph S12.6 kmh S 10.1 mph16.3 kmh 30.16 in1021.3 mb 0.00 in0.0 mm 0.00 in0.0 mm 0.00 in0.0 mm
05:19 PM 66.9°F19.4°C 59.2°F15.1°C 76% 0.7 mph SSW1.1 kmh SSW 10.1 mph16.3 kmh 30.17 in1021.7 mb 0.00 in0.0 mm 0.00 in0.0 mm 0.00 in0.0 mm
05:34 PM 66.7°F19.3°C 59.0°F15.0°C 76% 2.2 mph SE3.5 kmh SE 7.6 mph12.2 kmh 30.18 in1022.0 mb 0.00 in0.0 mm 0.00 in0.0 mm 0.00 in0.0 mm
05:49 PM 66.7°F19.3°C 59.4°F15.2°C 77% 3.4 mph ESE5.5 kmh ESE 10.1 mph16.3 kmh 30.17 in1021.7 mb 0.00 in0.0 mm 0.00 in0.0 mm 0.00 in0.0 mm
06:04 PM 66.4°F19.1°C 60.1°F15.6°C 80% 4.7 mph SSE7.6 kmh SSE 10.1 mph16.3 kmh 30.17 in1021.7 mb 0.00 in0.0 mm 0.00 in0.0 mm 0.00 in0.0 mm
06:19 PM 66.2°F19.0°C 59.2°F15.1°C 78% Calm Calm 4.9 mph7.9 kmh 30.17 in1021.7 mb 0.00 in0.0 mm 0.00 in0.0 mm 0.00 in0.0 mm
06:34 PM 66.0°F18.9°C 58.6°F14.8°C 77% Calm Calm 4.9 mph7.9 kmh 30.18 in1022.0 mb 0.00 in0.0 mm 0.00 in0.0 mm 0.00 in0.0 mm
06:49 PM 66.0°F18.9°C 58.3°F14.6°C 76% 0.7 mph W1.1 kmh W 4.9 mph7.9 kmh 30.18 in1022.0 mb 0.00 in0.0 mm 0.00 in0.0 mm 0.00 in0.0 mm
07:04 PM 66.0°F18.9°C 58.6°F14.8°C 77% 1.8 mph NW2.9 kmh NW 4.9 mph7.9 kmh 30.19 in1022.4 mb 0.00 in0.0 mm 0.00 in0.0 mm 0.00 in0.0 mm
07:19 PM 65.7°F18.7°C 58.3°F14.6°C 77% Calm Calm 7.6 mph12.2 kmh 30.19 in1022.4 mb 0.00 in0.0 mm 0.00 in0.0 mm 0.00 in0.0 mm
07:35 PM 65.5°F18.6°C 58.1°F14.5°C 77% Calm Calm 4.9 mph7.9 kmh 30.20 in1022.7 mb 0.00 in0.0 mm 0.00 in0.0 mm 0.00 in0.0 mm
07:50 PM 65.5°F18.6°C 57.7°F14.3°C 76% Calm Calm 4.9 mph7.9 kmh 30.21 in1023.0 mb 0.00 in0.0 mm 0.00 in0.0 mm 0.00 in0.0 mm
08:05 PM 65.5°F18.6°C 58.1°F14.5°C 77% Calm Calm 2.5 mph4.0 kmh 30.21 in1023.0 mb 0.00 in0.0 mm 0.00 in0.0 mm 0.00 in0.0 mm
08:20 PM 65.3°F18.5°C 57.2°F14.0°C 75% 0.7 mph SE1.1 kmh SE 2.5 mph4.0 kmh 30.22 in1023.4 mb 0.00 in0.0 mm 0.00 in0.0 mm 0.00 in0.0 mm
08:35 PM 65.5°F18.6°C 58.1°F14.5°C 77% Calm Calm 2.5 mph4.0 kmh 30.22 in1023.4 mb 0.00 in0.0 mm 0.00 in0.0 mm 0.00 in0.0 mm
08:50 PM 65.3°F18.5°C 58.3°F14.6°C 78% 1.8 mph NNW2.9 kmh NNW 4.9 mph7.9 kmh 30.23 in1023.7 mb 0.00 in0.0 mm 0.00 in0.0 mm 0.00 in0.0 mm
09:05 PM 64.9°F18.3°C 56.8°F13.8°C 75% 1.8 mph NW2.9 kmh NW 7.6 mph12.2 kmh 30.22 in1023.4 mb 0.00 in0.0 mm 0.00 in0.0 mm 0.00 in0.0 mm
09:20 PM 64.9°F18.3°C 56.1°F13.4°C 73% 0.9 mph NNW1.4 kmh NNW 7.6 mph12.2 kmh 30.23 in1023.7 mb 0.00 in0.0 mm 0.00 in0.0 mm 0.00 in0.0 mm
09:35 PM 64.9°F18.3°C 56.8°F13.8°C 75% 4.0 mph NNW6.4 kmh NNW 7.6 mph12.2 kmh 30.23 in1023.7 mb 0.00 in0.0 mm 0.00 in0.0 mm 0.00 in0.0 mm
09:50 PM 64.6°F18.1°C 55.4°F13.0°C 72% 6.9 mph NNW11.1 kmh NNW 10.1 mph16.3 kmh 30.24 in1024.0 mb 0.00 in0.0 mm 0.00 in0.0 mm 0.00 in0.0 mm
10:05 PM 63.9°F17.7°C 55.8°F13.2°C 75% 8.1 mph NNW13.0 kmh NNW 10.1 mph16.3 kmh 30.23 in1023.7 mb 0.00 in0.0 mm 0.00 in0.0 mm 0.00 in0.0 mm
10:20 PM 63.3°F17.4°C 54.9°F12.7°C 74% 8.1 mph NNW13.0 kmh NNW 12.5 mph20.1 kmh 30.24 in1024.0 mb 0.00 in0.0 mm 0.00 in0.0 mm 0.00 in0.0 mm
10:35 PM 62.8°F17.1°C 54.0°F12.2°C 73% 7.2 mph NNW11.6 kmh NNW 12.5 mph20.1 kmh 30.24 in1024.0 mb 0.00 in0.0 mm 0.00 in0.0 mm 0.00 in0.0 mm
10:50 PM 62.4°F16.9°C 53.6°F12.0°C 73% 6.0 mph N9.7 kmh N 12.5 mph20.1 kmh 30.24 in1024.0 mb 0.00 in0.0 mm 0.00 in0.0 mm 0.00 in0.0 mm
11:05 PM 62.2°F16.8°C 53.8°F12.1°C 74% 8.5 mph NNW13.7 kmh NNW 10.1 mph16.3 kmh 30.24 in1024.0 mb 0.00 in0.0 mm 0.00 in0.0 mm 0.00 in0.0 mm
11:20 PM 62.1°F16.7°C 53.6°F12.0°C 74% 6.5 mph N10.5 kmh N 12.5 mph20.1 kmh 30.24 in1024.0 mb 0.00 in0.0 mm 0.00 in0.0 mm 0.00 in0.0 mm
11:35 PM 62.1°F16.7°C 53.2°F11.8°C 73% 6.3 mph N10.1 kmh N 10.1 mph16.3 kmh 30.24 in1024.0 mb 0.00 in0.0 mm 0.00 in0.0 mm 0.00 in0.0 mm
11:50 PM 62.2°F16.8°C 54.1°F12.3°C 75% 7.2 mph N11.6 kmh N 10.1 mph16.3 kmh 30.24 in1024.0 mb 0.00 in0.0 mm 0.00 in0.0 mm 0.00 in0.0 mm